createdAt,value
2023-03-23T15:59:29.060Z,51.14
2023-03-23T16:01:57.348Z,50.93
2023-03-23T16:04:24.636Z,50.97
2023-03-23T16:06:57.474Z,50.52
2023-03-23T16:09:24.644Z,51.61
2023-03-23T16:11:51.948Z,50.29
2023-03-23T16:14:18.852Z,51.52
2023-03-23T16:16:51.107Z,51.43
2023-03-23T16:19:20.480Z,51.86
2023-03-23T16:21:47.838Z,51.35
2023-03-23T16:24:14.826Z,50.81
2023-03-23T16:26:42.170Z,51.40
2023-03-23T16:29:28.284Z,51.60
2023-03-23T16:32:01.665Z,51.28
2023-03-23T16:34:30.195Z,51.47
2023-03-23T16:36:57.526Z,51.27
2023-03-23T16:39:24.509Z,51.49
2023-03-23T16:41:51.725Z,51.13
2023-03-23T16:44:18.671Z,51.80
2023-03-23T16:46:46.025Z,52.24
2023-03-23T16:49:12.960Z,51.46
2023-03-23T16:51:41.624Z,52.08
2023-03-23T16:54:08.769Z,51.82
2023-03-23T16:56:36.153Z,51.96
2023-03-23T16:59:03.152Z,52.15
2023-03-23T17:01:30.836Z,52.02
2023-03-23T17:03:57.841Z,52.22
2023-03-23T17:06:25.635Z,52.50
2023-03-23T17:08:52.536Z,53.23
2023-03-23T17:11:19.709Z,53.38
2023-03-23T17:13:46.637Z,53.52
2023-03-23T17:16:14.154Z,53.48
2023-03-23T17:18:41.247Z,53.95
2023-03-23T17:21:08.444Z,53.92
2023-03-23T17:23:35.892Z,53.60
2023-03-23T17:26:04.333Z,54.22
2023-03-23T17:28:31.281Z,54.14
2023-03-23T17:30:58.660Z,54.17
2023-03-23T17:33:25.679Z,54.49
2023-03-23T17:35:54.009Z,55.06
2023-03-23T17:38:21.048Z,55.01
2023-03-23T17:40:48.203Z,54.83
2023-03-23T17:43:15.087Z,55.23
2023-03-23T17:45:44.372Z,54.89
2023-03-23T17:48:12.712Z,55.12
2023-03-23T17:50:39.904Z,55.18
2023-03-23T17:53:06.840Z,55.27
2023-03-23T17:55:34.014Z,55.21
2023-03-23T17:58:01.065Z,55.70
2023-03-23T18:00:28.303Z,55.59
2023-03-23T18:02:56.549Z,55.20
2023-03-23T18:05:24.740Z,55.47
2023-03-23T18:07:51.642Z,55.25
2023-03-23T18:10:18.918Z,55.26
2023-03-23T18:12:48.720Z,55.45
2023-03-23T18:15:16.058Z,55.21
2023-03-23T18:17:45.537Z,55.62
2023-03-23T18:20:13.356Z,56.14
2023-03-23T18:22:40.498Z,55.73
2023-03-23T18:25:07.951Z,55.81
2023-03-23T18:27:35.290Z,55.98
2023-03-23T18:30:03.227Z,55.94
2023-03-23T18:32:30.324Z,55.57
2023-03-23T18:34:57.542Z,56.13
2023-03-23T18:37:24.446Z,56.14
2023-03-23T18:39:53.661Z,56.38
2023-03-23T18:42:21.376Z,55.88
2023-03-23T18:44:48.793Z,56.73
2023-03-23T18:47:15.985Z,57.07
2023-03-23T18:49:46.372Z,56.87
2023-03-23T18:52:13.251Z,57.25
2023-03-23T18:54:41.741Z,57.06
2023-03-23T18:57:08.681Z,57.40
2023-03-23T18:59:36.147Z,57.32
2023-03-23T19:02:03.635Z,57.59
2023-03-23T19:04:33.168Z,57.83
2023-03-23T19:07:01.700Z,58.09
2023-03-23T19:09:30.089Z,58.06
2023-03-23T19:11:56.994Z,57.95
2023-03-23T19:14:24.153Z,58.05
2023-03-23T19:16:52.388Z,57.96
2023-03-23T19:19:20.265Z,58.37
2023-03-23T19:21:47.362Z,58.82
2023-03-23T19:24:16.049Z,58.60
2023-03-23T19:26:44.500Z,58.57
2023-03-23T19:31:46.308Z,58.98
2023-03-23T19:34:15.958Z,58.57
2023-03-23T19:36:48.190Z,58.84
2023-03-23T19:39:21.768Z,58.95
2023-03-23T19:41:50.559Z,59.37
2023-03-23T19:44:18.236Z,59.45
2023-03-23T19:46:45.434Z,59.38
2023-03-23T19:49:12.874Z,59.21
2023-03-23T19:51:39.907Z,58.64
2023-03-23T19:54:08.017Z,59.21
2023-03-23T19:56:36.179Z,59.02
2023-03-23T19:59:05.046Z,59.24
2023-03-23T20:01:32.612Z,59.68
2023-03-23T20:04:01.891Z,59.47
2023-03-23T20:06:29.593Z,59.66
2023-03-23T20:09:00.019Z,59.54
2023-03-23T20:11:28.887Z,59.86
2023-03-23T20:13:56.764Z,59.96
2023-03-23T20:16:24.800Z,59.72
2023-03-23T20:18:53.440Z,60.04
2023-03-23T20:21:22.819Z,60.03
2023-03-23T20:23:51.628Z,59.90
2023-03-23T20:26:40.504Z,59.67
2023-03-23T20:29:08.603Z,59.95
2023-03-23T20:31:41.795Z,59.81
2023-03-23T20:34:13.002Z,60.13
2023-03-23T20:36:42.843Z,59.55
2023-03-23T20:39:13.461Z,59.60
2023-03-23T20:41:41.203Z,59.75
2023-03-23T20:44:13.999Z,59.81
2023-03-23T20:46:46.371Z,59.46
2023-03-23T20:49:14.792Z,60.21
2023-03-23T20:51:42.972Z,59.20
2023-03-23T20:54:10.945Z,59.29
2023-03-23T20:56:40.431Z,59.06
2023-03-23T20:59:08.379Z,59.22
2023-03-23T21:01:35.863Z,59.42
2023-03-23T21:04:03.852Z,59.50
2023-03-23T21:06:31.421Z,59.86
2023-03-23T21:08:58.976Z,59.48
2023-03-23T21:11:27.662Z,59.30
2023-03-23T21:13:54.858Z,59.71
2023-03-23T21:16:24.159Z,59.28
2023-03-23T21:18:51.535Z,59.62
2023-03-23T21:21:18.956Z,59.79
2023-03-23T21:23:47.307Z,59.91
2023-03-23T21:26:16.979Z,60.30
2023-03-23T21:28:45.583Z,60.51
2023-03-23T21:31:13.718Z,60.60
2023-03-23T21:33:41.373Z,61.40
2023-03-23T21:36:08.536Z,61.07
2023-03-23T21:38:35.805Z,61.62
2023-03-23T21:41:09.845Z,61.75
2023-03-23T21:43:37.222Z,61.54
2023-03-23T21:46:06.082Z,61.98
2023-03-23T21:48:33.372Z,61.83
2023-03-23T21:51:08.927Z,61.81
2023-03-23T21:53:37.136Z,62.17
2023-03-23T21:56:07.003Z,62.13
2023-03-23T21:58:34.180Z,61.95
2023-03-23T22:01:02.244Z,62.11
2023-03-23T22:03:33.194Z,62.53
2023-03-23T22:06:10.068Z,61.88
2023-03-23T22:08:38.953Z,61.97
2023-03-23T22:11:12.140Z,61.15
2023-03-23T22:13:40.836Z,61.34
2023-03-23T22:16:11.666Z,61.40
2023-03-23T22:18:39.937Z,61.31
2023-03-23T22:21:07.567Z,60.95
2023-03-23T22:23:35.717Z,60.63
2023-03-23T22:26:02.792Z,60.73
2023-03-23T22:28:31.122Z,60.45
2023-03-23T22:31:04.249Z,61.06
2023-03-23T22:33:31.936Z,60.17
2023-03-23T22:36:00.283Z,59.99
2023-03-23T22:38:27.649Z,60.01
2023-03-23T22:40:56.389Z,59.45
2023-03-23T22:43:24.327Z,59.75
2023-03-23T22:45:52.212Z,59.54
2023-03-23T22:48:21.526Z,59.10
2023-03-23T22:50:48.976Z,59.48
2023-03-23T22:53:17.492Z,59.46
2023-03-23T22:55:46.889Z,59.74
2023-03-23T22:58:14.935Z,59.79
2023-03-23T23:00:46.327Z,60.00
2023-03-23T23:03:13.805Z,60.70
2023-03-23T23:05:45.857Z,60.77
2023-03-23T23:08:15.896Z,60.57
2023-03-23T23:10:46.827Z,60.26
2023-03-23T23:13:14.915Z,60.60
2023-03-23T23:15:45.839Z,60.23
2023-03-23T23:18:13.979Z,60.09
2023-03-23T23:20:41.549Z,59.89
2023-03-23T23:23:09.931Z,60.11
2023-03-23T23:25:37.196Z,60.39
2023-03-23T23:28:06.059Z,60.46
2023-03-23T23:30:34.695Z,60.81
2023-03-23T23:33:02.264Z,60.08
2023-03-23T23:35:29.410Z,59.77
2023-03-23T23:37:56.684Z,59.81
2023-03-23T23:40:23.942Z,59.92
2023-03-23T23:42:52.110Z,59.74
2023-03-23T23:45:19.855Z,59.91
2023-03-23T23:47:47.553Z,59.53
2023-03-23T23:50:15.241Z,59.53
2023-03-23T23:52:44.742Z,59.84
2023-03-23T23:55:15.478Z,59.57
2023-03-23T23:57:44.960Z,60.33
